sensor_id;sensor_type;location;lat;lon;timestamp;P1;durP1;ratioP1;P2;durP2;ratioP2
11537;SDS011;50159;49.426;11.182;2023-06-10T00:00:29;4.33;;;4.07;;
11537;SDS011;50159;49.426;11.182;2023-06-10T00:02:57;5.00;;;4.70;;
11537;SDS011;50159;49.426;11.182;2023-06-10T00:05:25;6.70;;;4.67;;
11537;SDS011;50159;49.426;11.182;2023-06-10T00:07:56;5.23;;;4.83;;
11537;SDS011;50159;49.426;11.182;2023-06-10T00:10:23;5.17;;;4.83;;
11537;SDS011;50159;49.426;11.182;2023-06-10T00:12:50;5.90;;;4.57;;
11537;SDS011;50159;49.426;11.182;2023-06-10T00:15:17;4.80;;;4.33;;
11537;SDS011;50159;49.426;11.182;2023-06-10T00:17:45;4.97;;;4.57;;
11537;SDS011;50159;49.426;11.182;2023-06-10T00:20:12;5.03;;;4.73;;
11537;SDS011;50159;49.426;11.182;2023-06-10T00:22:39;4.80;;;4.47;;
11537;SDS011;50159;49.426;11.182;2023-06-10T00:25:09;4.90;;;4.60;;
11537;SDS011;50159;49.426;11.182;2023-06-10T00:27:37;4.97;;;4.63;;
11537;SDS011;50159;49.426;11.182;2023-06-10T00:30:04;4.80;;;4.50;;
11537;SDS011;50159;49.426;11.182;2023-06-10T00:32:34;5.17;;;4.87;;
11537;SDS011;50159;49.426;11.182;2023-06-10T00:35:02;5.33;;;4.73;;
11537;SDS011;50159;49.426;11.182;2023-06-10T00:37:33;4.63;;;4.33;;
11537;SDS011;50159;49.426;11.182;2023-06-10T00:40:03;4.57;;;4.27;;
11537;SDS011;50159;49.426;11.182;2023-06-10T00:42:31;5.10;;;4.70;;
11537;SDS011;50159;49.426;11.182;2023-06-10T00:44:58;4.47;;;4.20;;
11537;SDS011;50159;49.426;11.182;2023-06-10T00:47:25;4.50;;;4.27;;
11537;SDS011;50159;49.426;11.182;2023-06-10T00:49:52;4.40;;;4.20;;
11537;SDS011;50159;49.426;11.182;2023-06-10T00:52:21;4.43;;;4.13;;
11537;SDS011;50159;49.426;11.182;2023-06-10T00:54:53;4.63;;;4.40;;
11537;SDS011;50159;49.426;11.182;2023-06-10T00:57:20;5.50;;;4.17;;
11537;SDS011;50159;49.426;11.182;2023-06-10T00:59:48;4.83;;;4.47;;
11537;SDS011;50159;49.426;11.182;2023-06-10T01:02:15;4.67;;;4.37;;
11537;SDS011;50159;49.426;11.182;2023-06-10T01:04:43;5.17;;;4.67;;
11537;SDS011;50159;49.426;11.182;2023-06-10T01:12:33;5.90;;;4.77;;
11537;SDS011;50159;49.426;11.182;2023-06-10T01:15:08;5.10;;;4.70;;
11537;SDS011;50159;49.426;11.182;2023-06-10T01:17:51;5.20;;;4.80;;
11537;SDS011;50159;49.426;11.182;2023-06-10T01:20:28;5.20;;;4.70;;
11537;SDS011;50159;49.426;11.182;2023-06-10T01:22:58;6.97;;;5.13;;
11537;SDS011;50159;49.426;11.182;2023-06-10T01:25:27;5.23;;;4.83;;
11537;SDS011;50159;49.426;11.182;2023-06-10T01:30:38;5.40;;;5.00;;
11537;SDS011;50159;49.426;11.182;2023-06-10T01:33:11;5.63;;;5.23;;
11537;SDS011;50159;49.426;11.182;2023-06-10T01:35:42;6.57;;;4.77;;
11537;SDS011;50159;49.426;11.182;2023-06-10T01:38:11;5.97;;;5.10;;
11537;SDS011;50159;49.426;11.182;2023-06-10T01:40:40;5.73;;;5.23;;
11537;SDS011;50159;49.426;11.182;2023-06-10T01:43:08;5.43;;;5.10;;
11537;SDS011;50159;49.426;11.182;2023-06-10T01:45:35;5.10;;;4.70;;
11537;SDS011;50159;49.426;11.182;2023-06-10T01:48:02;5.07;;;4.70;;
11537;SDS011;50159;49.426;11.182;2023-06-10T01:50:29;4.27;;;4.07;;
11537;SDS011;50159;49.426;11.182;2023-06-10T01:52:57;5.47;;;5.07;;
11537;SDS011;50159;49.426;11.182;2023-06-10T01:55:24;5.23;;;4.90;;
11537;SDS011;50159;49.426;11.182;2023-06-10T01:57:51;4.70;;;4.43;;
11537;SDS011;50159;49.426;11.182;2023-06-10T02:00:18;5.23;;;4.83;;
11537;SDS011;50159;49.426;11.182;2023-06-10T02:02:45;5.13;;;4.83;;
11537;SDS011;50159;49.426;11.182;2023-06-10T02:05:12;7.60;;;5.20;;
11537;SDS011;50159;49.426;11.182;2023-06-10T02:07:38;4.83;;;4.53;;
11537;SDS011;50159;49.426;11.182;2023-06-10T02:10:06;5.17;;;4.77;;
11537;SDS011;50159;49.426;11.182;2023-06-10T02:12:34;5.10;;;4.70;;
11537;SDS011;50159;49.426;11.182;2023-06-10T02:15:01;5.30;;;4.87;;
11537;SDS011;50159;49.426;11.182;2023-06-10T02:17:29;5.27;;;4.73;;
11537;SDS011;50159;49.426;11.182;2023-06-10T02:19:56;4.97;;;4.67;;
11537;SDS011;50159;49.426;11.182;2023-06-10T02:22:23;5.07;;;4.77;;
11537;SDS011;50159;49.426;11.182;2023-06-10T02:24:50;4.90;;;4.57;;
11537;SDS011;50159;49.426;11.182;2023-06-10T02:27:17;5.07;;;4.57;;
11537;SDS011;50159;49.426;11.182;2023-06-10T02:29:45;7.20;;;5.10;;
11537;SDS011;50159;49.426;11.182;2023-06-10T02:32:11;5.00;;;4.70;;
11537;SDS011;50159;49.426;11.182;2023-06-10T02:34:38;5.50;;;5.10;;
11537;SDS011;50159;49.426;11.182;2023-06-10T02:37:05;5.07;;;4.67;;
11537;SDS011;50159;49.426;11.182;2023-06-10T02:39:32;4.97;;;4.40;;
11537;SDS011;50159;49.426;11.182;2023-06-10T02:41:59;4.83;;;4.50;;
11537;SDS011;50159;49.426;11.182;2023-06-10T02:44:26;4.97;;;4.57;;
11537;SDS011;50159;49.426;11.182;2023-06-10T02:46:53;6.60;;;4.50;;
11537;SDS011;50159;49.426;11.182;2023-06-10T02:49:20;4.73;;;4.43;;
11537;SDS011;50159;49.426;11.182;2023-06-10T02:51:46;5.00;;;4.70;;
11537;SDS011;50159;49.426;11.182;2023-06-10T02:54:13;5.07;;;4.60;;
11537;SDS011;50159;49.426;11.182;2023-06-10T02:56:40;4.90;;;4.60;;
11537;SDS011;50159;49.426;11.182;2023-06-10T02:59:08;5.67;;;5.10;;
11537;SDS011;50159;49.426;11.182;2023-06-10T03:01:34;4.93;;;4.63;;
11537;SDS011;50159;49.426;11.182;2023-06-10T03:04:04;5.13;;;4.77;;
11537;SDS011;50159;49.426;11.182;2023-06-10T03:06:31;5.63;;;5.10;;
11537;SDS011;50159;49.426;11.182;2023-06-10T03:09:02;4.63;;;4.33;;
11537;SDS011;50159;49.426;11.182;2023-06-10T03:11:33;4.90;;;4.60;;
11537;SDS011;50159;49.426;11.182;2023-06-10T03:14:00;5.30;;;4.80;;
11537;SDS011;50159;49.426;11.182;2023-06-10T03:16:27;5.57;;;5.10;;
11537;SDS011;50159;49.426;11.182;2023-06-10T03:18:56;5.87;;;5.37;;
11537;SDS011;50159;49.426;11.182;2023-06-10T03:21:23;8.07;;;5.43;;
11537;SDS011;50159;49.426;11.182;2023-06-10T03:23:50;5.37;;;5.07;;
11537;SDS011;50159;49.426;11.182;2023-06-10T03:26:17;5.93;;;5.40;;
11537;SDS011;50159;49.426;11.182;2023-06-10T03:28:47;4.87;;;4.57;;
11537;SDS011;50159;49.426;11.182;2023-06-10T03:31:14;5.23;;;4.90;;
11537;SDS011;50159;49.426;11.182;2023-06-10T03:33:43;5.77;;;4.63;;
11537;SDS011;50159;49.426;11.182;2023-06-10T03:36:10;4.93;;;4.63;;
11537;SDS011;50159;49.426;11.182;2023-06-10T03:38:37;5.23;;;4.90;;
11537;SDS011;50159;49.426;11.182;2023-06-10T03:41:03;4.50;;;4.20;;
11537;SDS011;50159;49.426;11.182;2023-06-10T03:43:30;4.97;;;4.53;;
11537;SDS011;50159;49.426;11.182;2023-06-10T03:45:57;5.27;;;4.97;;
11537;SDS011;50159;49.426;11.182;2023-06-10T03:48:24;5.37;;;5.03;;
11537;SDS011;50159;49.426;11.182;2023-06-10T03:50:51;4.83;;;4.57;;
11537;SDS011;50159;49.426;11.182;2023-06-10T03:53:18;4.80;;;4.50;;
11537;SDS011;50159;49.426;11.182;2023-06-10T03:55:45;5.80;;;5.40;;
11537;SDS011;50159;49.426;11.182;2023-06-10T03:58:12;5.40;;;5.10;;
11537;SDS011;50159;49.426;11.182;2023-06-10T04:00:40;7.30;;;6.70;;
11537;SDS011;50159;49.426;11.182;2023-06-10T04:03:08;5.87;;;5.37;;
11537;SDS011;50159;49.426;11.182;2023-06-10T04:05:35;5.57;;;5.20;;
11537;SDS011;50159;49.426;11.182;2023-06-10T04:08:02;6.03;;;5.63;;
11537;SDS011;50159;49.426;11.182;2023-06-10T04:10:29;6.00;;;5.50;;
11537;SDS011;50159;49.426;11.182;2023-06-10T04:12:56;4.67;;;4.40;;
11537;SDS011;50159;49.426;11.182;2023-06-10T04:15:23;5.63;;;5.17;;
11537;SDS011;50159;49.426;11.182;2023-06-10T04:17:50;5.73;;;5.30;;
11537;SDS011;50159;49.426;11.182;2023-06-10T04:20:17;5.87;;;5.47;;
11537;SDS011;50159;49.426;11.182;2023-06-10T04:22:45;5.03;;;4.73;;
11537;SDS011;50159;49.426;11.182;2023-06-10T04:25:11;5.50;;;5.10;;
11537;SDS011;50159;49.426;11.182;2023-06-10T04:27:38;5.50;;;5.10;;
11537;SDS011;50159;49.426;11.182;2023-06-10T04:30:05;5.03;;;4.73;;
11537;SDS011;50159;49.426;11.182;2023-06-10T04:32:33;6.00;;;5.50;;
11537;SDS011;50159;49.426;11.182;2023-06-10T04:35:00;5.40;;;5.00;;
11537;SDS011;50159;49.426;11.182;2023-06-10T04:37:27;5.50;;;5.10;;
11537;SDS011;50159;49.426;11.182;2023-06-10T04:39:55;5.37;;;4.97;;
11537;SDS011;50159;49.426;11.182;2023-06-10T04:42:23;5.17;;;4.77;;
11537;SDS011;50159;49.426;11.182;2023-06-10T04:44:50;4.60;;;4.40;;
11537;SDS011;50159;49.426;11.182;2023-06-10T04:47:16;4.97;;;4.53;;
11537;SDS011;50159;49.426;11.182;2023-06-10T04:49:43;4.97;;;4.67;;
11537;SDS011;50159;49.426;11.182;2023-06-10T04:52:10;4.53;;;4.30;;
11537;SDS011;50159;49.426;11.182;2023-06-10T04:54:37;4.73;;;4.43;;
11537;SDS011;50159;49.426;11.182;2023-06-10T04:57:04;5.07;;;4.70;;
11537;SDS011;50159;49.426;11.182;2023-06-10T04:59:33;4.77;;;4.43;;
11537;SDS011;50159;49.426;11.182;2023-06-10T05:02:04;4.63;;;4.33;;
11537;SDS011;50159;49.426;11.182;2023-06-10T05:04:31;4.50;;;4.20;;
11537;SDS011;50159;49.426;11.182;2023-06-10T05:06:58;4.70;;;4.40;;
11537;SDS011;50159;49.426;11.182;2023-06-10T05:09:25;4.50;;;4.20;;
11537;SDS011;50159;49.426;11.182;2023-06-10T05:11:52;4.67;;;4.37;;
11537;SDS011;50159;49.426;11.182;2023-06-10T05:14:20;4.40;;;4.20;;
11537;SDS011;50159;49.426;11.182;2023-06-10T05:16:47;4.47;;;4.10;;
11537;SDS011;50159;49.426;11.182;2023-06-10T05:19:14;4.17;;;3.93;;
11537;SDS011;50159;49.426;11.182;2023-06-10T05:21:44;3.90;;;3.70;;
11537;SDS011;50159;49.426;11.182;2023-06-10T05:24:11;4.27;;;3.97;;
11537;SDS011;50159;49.426;11.182;2023-06-10T05:26:38;3.70;;;3.50;;
11537;SDS011;50159;49.426;11.182;2023-06-10T05:29:05;4.67;;;4.37;;
11537;SDS011;50159;49.426;11.182;2023-06-10T05:31:33;3.63;;;3.40;;
11537;SDS011;50159;49.426;11.182;2023-06-10T05:33:59;3.83;;;3.63;;
11537;SDS011;50159;49.426;11.182;2023-06-10T05:36:26;3.33;;;3.23;;
11537;SDS011;50159;49.426;11.182;2023-06-10T05:38:53;3.00;;;2.90;;
11537;SDS011;50159;49.426;11.182;2023-06-10T05:41:20;2.90;;;2.80;;
11537;SDS011;50159;49.426;11.182;2023-06-10T05:43:48;3.13;;;2.97;;
11537;SDS011;50159;49.426;11.182;2023-06-10T05:46:15;3.10;;;3.00;;
11537;SDS011;50159;49.426;11.182;2023-06-10T05:48:42;3.00;;;2.90;;
11537;SDS011;50159;49.426;11.182;2023-06-10T05:51:09;2.77;;;2.67;;
11537;SDS011;50159;49.426;11.182;2023-06-10T05:53:36;3.20;;;3.10;;
11537;SDS011;50159;49.426;11.182;2023-06-10T05:56:04;2.87;;;2.77;;
11537;SDS011;50159;49.426;11.182;2023-06-10T05:58:31;3.13;;;3.03;;
11537;SDS011;50159;49.426;11.182;2023-06-10T06:00:58;2.70;;;2.60;;
11537;SDS011;50159;49.426;11.182;2023-06-10T06:03:25;3.00;;;2.90;;
11537;SDS011;50159;49.426;11.182;2023-06-10T06:05:52;3.40;;;3.20;;
11537;SDS011;50159;49.426;11.182;2023-06-10T06:08:19;2.93;;;2.83;;
11537;SDS011;50159;49.426;11.182;2023-06-10T06:10:45;3.00;;;2.90;;
11537;SDS011;50159;49.426;11.182;2023-06-10T06:13:14;3.20;;;3.10;;
11537;SDS011;50159;49.426;11.182;2023-06-10T06:15:41;3.00;;;2.90;;
11537;SDS011;50159;49.426;11.182;2023-06-10T06:18:08;3.27;;;3.17;;
11537;SDS011;50159;49.426;11.182;2023-06-10T06:20:35;3.50;;;3.40;;
11537;SDS011;50159;49.426;11.182;2023-06-10T06:23:01;4.43;;;4.13;;
11537;SDS011;50159;49.426;11.182;2023-06-10T06:25:28;4.70;;;4.40;;
11537;SDS011;50159;49.426;11.182;2023-06-10T06:27:55;4.10;;;3.87;;
11537;SDS011;50159;49.426;11.182;2023-06-10T06:30:22;4.20;;;3.93;;
11537;SDS011;50159;49.426;11.182;2023-06-10T06:32:49;4.27;;;4.07;;
11537;SDS011;50159;49.426;11.182;2023-06-10T06:35:16;4.40;;;4.10;;
11537;SDS011;50159;49.426;11.182;2023-06-10T06:37:42;4.70;;;4.40;;
11537;SDS011;50159;49.426;11.182;2023-06-10T06:40:09;4.23;;;4.00;;
11537;SDS011;50159;49.426;11.182;2023-06-10T06:42:37;5.20;;;4.83;;
11537;SDS011;50159;49.426;11.182;2023-06-10T06:45:04;4.80;;;4.50;;
11537;SDS011;50159;49.426;11.182;2023-06-10T06:47:31;3.87;;;3.67;;
11537;SDS011;50159;49.426;11.182;2023-06-10T06:49:58;5.33;;;4.93;;
11537;SDS011;50159;49.426;11.182;2023-06-10T06:52:25;5.13;;;4.80;;
11537;SDS011;50159;49.426;11.182;2023-06-10T06:54:52;4.80;;;4.50;;
11537;SDS011;50159;49.426;11.182;2023-06-10T06:57:19;4.83;;;4.60;;
11537;SDS011;50159;49.426;11.182;2023-06-10T06:59:46;5.00;;;4.70;;
11537;SDS011;50159;49.426;11.182;2023-06-10T07:02:12;4.10;;;3.90;;
11537;SDS011;50159;49.426;11.182;2023-06-10T07:04:39;4.57;;;4.27;;
11537;SDS011;50159;49.426;11.182;2023-06-10T07:07:07;4.93;;;4.63;;
11537;SDS011;50159;49.426;11.182;2023-06-10T07:09:35;5.23;;;4.90;;
11537;SDS011;50159;49.426;11.182;2023-06-10T07:12:03;5.77;;;5.13;;
11537;SDS011;50159;49.426;11.182;2023-06-10T07:14:31;5.63;;;4.53;;
11537;SDS011;50159;49.426;11.182;2023-06-10T07:16:58;5.87;;;5.47;;
11537;SDS011;50159;49.426;11.182;2023-06-10T07:19:25;5.70;;;5.20;;
11537;SDS011;50159;49.426;11.182;2023-06-10T07:21:52;5.30;;;4.90;;
11537;SDS011;50159;49.426;11.182;2023-06-10T07:24:19;5.33;;;4.97;;
11537;SDS011;50159;49.426;11.182;2023-06-10T07:26:46;5.40;;;5.00;;
11537;SDS011;50159;49.426;11.182;2023-06-10T07:29:13;6.03;;;5.23;;
11537;SDS011;50159;49.426;11.182;2023-06-10T07:31:40;7.23;;;5.37;;
11537;SDS011;50159;49.426;11.182;2023-06-10T07:34:08;5.00;;;4.70;;
11537;SDS011;50159;49.426;11.182;2023-06-10T07:36:34;5.10;;;4.80;;
11537;SDS011;50159;49.426;11.182;2023-06-10T07:39:02;5.13;;;4.73;;
11537;SDS011;50159;49.426;11.182;2023-06-10T07:41:29;4.60;;;4.37;;
11537;SDS011;50159;49.426;11.182;2023-06-10T07:43:56;5.57;;;5.07;;
11537;SDS011;50159;49.426;11.182;2023-06-10T07:46:23;4.33;;;4.03;;
11537;SDS011;50159;49.426;11.182;2023-06-10T07:48:51;4.43;;;4.23;;
11537;SDS011;50159;49.426;11.182;2023-06-10T07:51:18;4.80;;;4.50;;
11537;SDS011;50159;49.426;11.182;2023-06-10T07:53:44;4.17;;;3.87;;
11537;SDS011;50159;49.426;11.182;2023-06-10T07:56:11;4.37;;;4.13;;
11537;SDS011;50159;49.426;11.182;2023-06-10T07:58:38;5.13;;;4.83;;
11537;SDS011;50159;49.426;11.182;2023-06-10T08:01:05;4.50;;;4.20;;
11537;SDS011;50159;49.426;11.182;2023-06-10T08:03:32;4.23;;;3.93;;
11537;SDS011;50159;49.426;11.182;2023-06-10T08:05:59;4.23;;;3.93;;
11537;SDS011;50159;49.426;11.182;2023-06-10T08:08:27;4.27;;;4.03;;
11537;SDS011;50159;49.426;11.182;2023-06-10T08:10:54;4.40;;;4.10;;
11537;SDS011;50159;49.426;11.182;2023-06-10T08:13:20;4.23;;;3.93;;
11537;SDS011;50159;49.426;11.182;2023-06-10T08:15:47;4.07;;;3.87;;
11537;SDS011;50159;49.426;11.182;2023-06-10T08:18:16;3.73;;;3.53;;
11537;SDS011;50159;49.426;11.182;2023-06-10T08:20:43;3.80;;;3.60;;
11537;SDS011;50159;49.426;11.182;2023-06-10T08:23:10;3.83;;;3.63;;
11537;SDS011;50159;49.426;11.182;2023-06-10T08:25:37;4.03;;;3.77;;
11537;SDS011;50159;49.426;11.182;2023-06-10T08:28:04;4.73;;;3.80;;
11537;SDS011;50159;49.426;11.182;2023-06-10T08:30:31;3.37;;;3.27;;
11537;SDS011;50159;49.426;11.182;2023-06-10T08:32:59;4.00;;;3.80;;
11537;SDS011;50159;49.426;11.182;2023-06-10T08:35:26;3.40;;;3.30;;
11537;SDS011;50159;49.426;11.182;2023-06-10T08:37:53;4.03;;;3.83;;
11537;SDS011;50159;49.426;11.182;2023-06-10T08:40:20;4.17;;;3.87;;
11537;SDS011;50159;49.426;11.182;2023-06-10T08:42:53;3.73;;;3.53;;
11537;SDS011;50159;49.426;11.182;2023-06-10T08:45:42;3.97;;;3.70;;
11537;SDS011;50159;49.426;11.182;2023-06-10T08:48:13;3.83;;;3.53;;
11537;SDS011;50159;49.426;11.182;2023-06-10T08:50:43;3.97;;;3.77;;
11537;SDS011;50159;49.426;11.182;2023-06-10T08:53:12;3.23;;;3.13;;
11537;SDS011;50159;49.426;11.182;2023-06-10T08:55:45;3.50;;;3.40;;
11537;SDS011;50159;49.426;11.182;2023-06-10T08:58:18;3.40;;;3.30;;
11537;SDS011;50159;49.426;11.182;2023-06-10T09:00:46;3.33;;;3.23;;
11537;SDS011;50159;49.426;11.182;2023-06-10T09:03:13;3.70;;;3.50;;
11537;SDS011;50159;49.426;11.182;2023-06-10T09:05:41;3.70;;;3.43;;
11537;SDS011;50159;49.426;11.182;2023-06-10T09:08:08;3.23;;;3.03;;
11537;SDS011;50159;49.426;11.182;2023-06-10T09:10:37;4.83;;;3.97;;
11537;SDS011;50159;49.426;11.182;2023-06-10T09:13:04;5.83;;;3.70;;
11537;SDS011;50159;49.426;11.182;2023-06-10T09:15:31;3.27;;;3.13;;
11537;SDS011;50159;49.426;11.182;2023-06-10T09:17:58;3.53;;;3.40;;
11537;SDS011;50159;49.426;11.182;2023-06-10T09:20:26;3.83;;;3.60;;
11537;SDS011;50159;49.426;11.182;2023-06-10T09:22:53;3.90;;;3.60;;
11537;SDS011;50159;49.426;11.182;2023-06-10T09:25:20;3.70;;;3.50;;
11537;SDS011;50159;49.426;11.182;2023-06-10T09:28:03;4.00;;;3.80;;
11537;SDS011;50159;49.426;11.182;2023-06-10T09:30:32;3.63;;;3.47;;
11537;SDS011;50159;49.426;11.182;2023-06-10T09:33:01;4.03;;;3.80;;
11537;SDS011;50159;49.426;11.182;2023-06-10T09:35:37;3.70;;;3.53;;
11537;SDS011;50159;49.426;11.182;2023-06-10T09:38:28;3.57;;;3.47;;
11537;SDS011;50159;49.426;11.182;2023-06-10T09:40:58;3.60;;;3.50;;
11537;SDS011;50159;49.426;11.182;2023-06-10T09:43:43;3.63;;;3.33;;
11537;SDS011;50159;49.426;11.182;2023-06-10T09:46:16;3.17;;;3.07;;
11537;SDS011;50159;49.426;11.182;2023-06-10T09:48:45;3.10;;;3.00;;
11537;SDS011;50159;49.426;11.182;2023-06-10T09:51:14;3.20;;;3.10;;
11537;SDS011;50159;49.426;11.182;2023-06-10T09:53:43;3.13;;;3.03;;
11537;SDS011;50159;49.426;11.182;2023-06-10T09:56:18;3.43;;;3.30;;
11537;SDS011;50159;49.426;11.182;2023-06-10T09:58:45;3.53;;;3.33;;
11537;SDS011;50159;49.426;11.182;2023-06-10T10:01:13;3.77;;;3.57;;
11537;SDS011;50159;49.426;11.182;2023-06-10T10:03:45;3.43;;;3.30;;
11537;SDS011;50159;49.426;11.182;2023-06-10T10:06:17;3.63;;;3.43;;
11537;SDS011;50159;49.426;11.182;2023-06-10T10:08:46;3.53;;;3.37;;
11537;SDS011;50159;49.426;11.182;2023-06-10T10:11:22;3.67;;;3.37;;
11537;SDS011;50159;49.426;11.182;2023-06-10T10:13:50;4.23;;;3.70;;
11537;SDS011;50159;49.426;11.182;2023-06-10T10:16:31;4.07;;;3.80;;
11537;SDS011;50159;49.426;11.182;2023-06-10T10:19:07;3.73;;;3.53;;
11537;SDS011;50159;49.426;11.182;2023-06-10T10:21:52;3.40;;;3.30;;
11537;SDS011;50159;49.426;11.182;2023-06-10T10:24:26;3.07;;;2.97;;
11537;SDS011;50159;49.426;11.182;2023-06-10T10:27:03;3.53;;;3.33;;
11537;SDS011;50159;49.426;11.182;2023-06-10T10:29:46;3.40;;;3.30;;
11537;SDS011;50159;49.426;11.182;2023-06-10T10:32:18;3.77;;;3.57;;
11537;SDS011;50159;49.426;11.182;2023-06-10T10:35:01;3.80;;;3.60;;
11537;SDS011;50159;49.426;11.182;2023-06-10T10:37:44;3.70;;;3.50;;
11537;SDS011;50159;49.426;11.182;2023-06-10T10:40:12;3.40;;;3.20;;
11537;SDS011;50159;49.426;11.182;2023-06-10T10:42:41;3.10;;;3.00;;
11537;SDS011;50159;49.426;11.182;2023-06-10T10:45:09;3.87;;;3.67;;
11537;SDS011;50159;49.426;11.182;2023-06-10T10:47:37;4.10;;;3.90;;
11537;SDS011;50159;49.426;11.182;2023-06-10T10:50:15;4.87;;;4.57;;
11537;SDS011;50159;49.426;11.182;2023-06-10T10:52:51;3.87;;;3.63;;
11537;SDS011;50159;49.426;11.182;2023-06-10T10:55:20;3.63;;;3.53;;
11537;SDS011;50159;49.426;11.182;2023-06-10T10:58:23;3.60;;;3.40;;
11537;SDS011;50159;49.426;11.182;2023-06-10T11:00:45;3.87;;;3.67;;
11537;SDS011;50159;49.426;11.182;2023-06-10T11:03:13;3.67;;;3.47;;
11537;SDS011;50159;49.426;11.182;2023-06-10T11:05:45;3.13;;;3.00;;
11537;SDS011;50159;49.426;11.182;2023-06-10T11:08:15;3.40;;;3.27;;
11537;SDS011;50159;49.426;11.182;2023-06-10T11:11:22;3.73;;;3.43;;
11537;SDS011;50159;49.426;11.182;2023-06-10T11:16:42;3.43;;;3.27;;
11537;SDS011;50159;49.426;11.182;2023-06-10T11:19:10;2.97;;;2.87;;
11537;SDS011;50159;49.426;11.182;2023-06-10T11:22:05;4.07;;;3.30;;
11537;SDS011;50159;49.426;11.182;2023-06-10T11:24:34;3.33;;;3.13;;
11537;SDS011;50159;49.426;11.182;2023-06-10T11:32:34;3.30;;;3.00;;
11537;SDS011;50159;49.426;11.182;2023-06-10T11:35:04;3.13;;;2.97;;
11537;SDS011;50159;49.426;11.182;2023-06-10T11:37:34;3.03;;;2.93;;
11537;SDS011;50159;49.426;11.182;2023-06-10T11:40:01;3.20;;;3.10;;
11537;SDS011;50159;49.426;11.182;2023-06-10T11:42:29;3.07;;;2.87;;
11537;SDS011;50159;49.426;11.182;2023-06-10T11:44:56;3.37;;;3.20;;
11537;SDS011;50159;49.426;11.182;2023-06-10T11:47:24;5.80;;;3.83;;
11537;SDS011;50159;49.426;11.182;2023-06-10T11:49:56;3.23;;;3.13;;
11537;SDS011;50159;49.426;11.182;2023-06-10T11:52:30;3.13;;;3.00;;
11537;SDS011;50159;49.426;11.182;2023-06-10T11:55:05;9.70;;;8.70;;
11537;SDS011;50159;49.426;11.182;2023-06-10T11:57:36;19.20;;;16.63;;
11537;SDS011;50159;49.426;11.182;2023-06-10T12:00:04;14.70;;;13.10;;
11537;SDS011;50159;49.426;11.182;2023-06-10T12:02:32;32.10;;;25.50;;
11537;SDS011;50159;49.426;11.182;2023-06-10T12:05:14;176.93;;;140.17;;
11537;SDS011;50159;49.426;11.182;2023-06-10T12:07:41;469.80;;;362.50;;
11537;SDS011;50159;49.426;11.182;2023-06-10T12:10:08;477.83;;;388.07;;
11537;SDS011;50159;49.426;11.182;2023-06-10T12:12:52;371.60;;;291.10;;
11537;SDS011;50159;49.426;11.182;2023-06-10T12:15:25;527.07;;;440.10;;
11537;SDS011;50159;49.426;11.182;2023-06-10T12:17:55;876.17;;;718.10;;
11537;SDS011;50159;49.426;11.182;2023-06-10T12:20:26;784.33;;;679.53;;
11537;SDS011;50159;49.426;11.182;2023-06-10T12:23:00;90.07;;;69.30;;
11537;SDS011;50159;49.426;11.182;2023-06-10T12:25:36;34.87;;;29.47;;
11537;SDS011;50159;49.426;11.182;2023-06-10T12:28:05;8.03;;;7.33;;
11537;SDS011;50159;49.426;11.182;2023-06-10T12:30:36;3.73;;;3.53;;
11537;SDS011;50159;49.426;11.182;2023-06-10T12:33:03;3.17;;;3.07;;
11537;SDS011;50159;49.426;11.182;2023-06-10T12:35:30;2.97;;;2.87;;
11537;SDS011;50159;49.426;11.182;2023-06-10T12:38:04;3.13;;;2.93;;
11537;SDS011;50159;49.426;11.182;2023-06-10T12:40:36;3.00;;;2.80;;
11537;SDS011;50159;49.426;11.182;2023-06-10T12:43:06;2.70;;;2.60;;
11537;SDS011;50159;49.426;11.182;2023-06-10T12:45:34;3.50;;;3.30;;
11537;SDS011;50159;49.426;11.182;2023-06-10T12:48:09;2.73;;;2.63;;
11537;SDS011;50159;49.426;11.182;2023-06-10T12:50:43;3.03;;;2.90;;
11537;SDS011;50159;49.426;11.182;2023-06-10T12:53:11;2.77;;;2.67;;
11537;SDS011;50159;49.426;11.182;2023-06-10T12:55:38;2.87;;;2.77;;
11537;SDS011;50159;49.426;11.182;2023-06-10T12:58:05;3.07;;;2.87;;
11537;SDS011;50159;49.426;11.182;2023-06-10T13:00:32;2.63;;;2.53;;
11537;SDS011;50159;49.426;11.182;2023-06-10T13:03:01;2.63;;;2.53;;
11537;SDS011;50159;49.426;11.182;2023-06-10T13:05:28;3.20;;;3.00;;
11537;SDS011;50159;49.426;11.182;2023-06-10T13:07:56;3.27;;;3.00;;
11537;SDS011;50159;49.426;11.182;2023-06-10T13:10:23;2.70;;;2.50;;
11537;SDS011;50159;49.426;11.182;2023-06-10T13:12:52;2.80;;;2.70;;
11537;SDS011;50159;49.426;11.182;2023-06-10T13:15:20;2.80;;;2.70;;
11537;SDS011;50159;49.426;11.182;2023-06-10T13:17:48;2.87;;;2.77;;
11537;SDS011;50159;49.426;11.182;2023-06-10T13:20:17;2.50;;;2.40;;
11537;SDS011;50159;49.426;11.182;2023-06-10T13:22:44;2.80;;;2.70;;
11537;SDS011;50159;49.426;11.182;2023-06-10T13:25:11;2.47;;;2.37;;
11537;SDS011;50159;49.426;11.182;2023-06-10T13:27:39;2.63;;;2.53;;
11537;SDS011;50159;49.426;11.182;2023-06-10T13:30:08;2.83;;;2.73;;
11537;SDS011;50159;49.426;11.182;2023-06-10T13:32:37;2.57;;;2.47;;
11537;SDS011;50159;49.426;11.182;2023-06-10T13:35:04;2.57;;;2.47;;
11537;SDS011;50159;49.426;11.182;2023-06-10T13:37:33;2.17;;;2.07;;
11537;SDS011;50159;49.426;11.182;2023-06-10T13:40:00;2.57;;;2.47;;
11537;SDS011;50159;49.426;11.182;2023-06-10T13:42:28;2.30;;;2.27;;
11537;SDS011;50159;49.426;11.182;2023-06-10T13:44:55;2.30;;;2.30;;
11537;SDS011;50159;49.426;11.182;2023-06-10T13:47:25;2.60;;;2.50;;
11537;SDS011;50159;49.426;11.182;2023-06-10T13:49:52;2.53;;;2.40;;
11537;SDS011;50159;49.426;11.182;2023-06-10T13:52:19;2.57;;;2.47;;
11537;SDS011;50159;49.426;11.182;2023-06-10T13:54:46;2.43;;;2.40;;
11537;SDS011;50159;49.426;11.182;2023-06-10T13:57:13;2.43;;;2.33;;
11537;SDS011;50159;49.426;11.182;2023-06-10T13:59:40;2.03;;;2.03;;
11537;SDS011;50159;49.426;11.182;2023-06-10T14:02:07;2.20;;;2.10;;
11537;SDS011;50159;49.426;11.182;2023-06-10T14:04:34;1.90;;;1.90;;
11537;SDS011;50159;49.426;11.182;2023-06-10T14:07:01;1.90;;;1.90;;
11537;SDS011;50159;49.426;11.182;2023-06-10T14:09:28;2.30;;;2.00;;
11537;SDS011;50159;49.426;11.182;2023-06-10T14:11:55;1.80;;;1.80;;
11537;SDS011;50159;49.426;11.182;2023-06-10T14:14:22;2.13;;;2.10;;
11537;SDS011;50159;49.426;11.182;2023-06-10T14:16:49;1.73;;;1.73;;
11537;SDS011;50159;49.426;11.182;2023-06-10T14:19:16;1.43;;;1.43;;
11537;SDS011;50159;49.426;11.182;2023-06-10T14:21:42;1.83;;;1.83;;
11537;SDS011;50159;49.426;11.182;2023-06-10T14:24:09;1.97;;;1.87;;
11537;SDS011;50159;49.426;11.182;2023-06-10T14:26:36;2.10;;;2.00;;
11537;SDS011;50159;49.426;11.182;2023-06-10T14:29:03;1.60;;;1.60;;
11537;SDS011;50159;49.426;11.182;2023-06-10T14:31:30;1.97;;;1.97;;
11537;SDS011;50159;49.426;11.182;2023-06-10T14:33:57;2.17;;;2.13;;
11537;SDS011;50159;49.426;11.182;2023-06-10T14:36:25;1.83;;;1.83;;
11537;SDS011;50159;49.426;11.182;2023-06-10T14:38:52;1.80;;;1.70;;
11537;SDS011;50159;49.426;11.182;2023-06-10T14:41:19;1.90;;;1.80;;
11537;SDS011;50159;49.426;11.182;2023-06-10T14:43:48;1.63;;;1.63;;
11537;SDS011;50159;49.426;11.182;2023-06-10T14:46:15;1.37;;;1.37;;
11537;SDS011;50159;49.426;11.182;2023-06-10T14:48:42;1.70;;;1.70;;
11537;SDS011;50159;49.426;11.182;2023-06-10T14:51:09;1.70;;;1.70;;
11537;SDS011;50159;49.426;11.182;2023-06-10T14:53:36;1.50;;;1.50;;
11537;SDS011;50159;49.426;11.182;2023-06-10T14:56:04;1.50;;;1.50;;
11537;SDS011;50159;49.426;11.182;2023-06-10T14:58:32;1.60;;;1.60;;